Terminal Aerodrome Forecast
Issued by NWS

Home | Current Version | Previous Version | Text Only | Print | Product List | Glossary On
Versions: 1 2 3 4 5 6 7 8 9 10 11 12 13 14 15 16
000
FTUS42 KGSP 242328
TAFHKY
TAF
KHKY 242328Z 2500/2524 17003KT P6SM FEW250
     FM250700 VRB02KT 5SM BR FEW250
      TEMPO 2509/2512 3SM BR SCT010
     FM251200 19005KT P6SM FEW060
     FM252000 21006KT P6SM VCTS BKN060CB=

USA.gov is the U.S. government's official web portal to all federal, state and local government web resources and services.